createdAt,value
2019-01-06T00:01:39.492Z,71.90
2019-01-06T00:07:15.813Z,63.00
2019-01-06T00:12:44.095Z,61.50
2019-01-06T00:18:14.261Z,59.33
2019-01-06T00:23:52.609Z,61.70
2019-01-06T00:29:22.142Z,66.30
2019-01-06T00:34:38.812Z,49.50
2019-01-06T00:40:01.351Z,56.23
2019-01-06T00:45:28.586Z,51.23
2019-01-06T00:50:51.389Z,60.97
2019-01-06T00:56:32.953Z,53.53
2019-01-06T01:02:02.696Z,51.33
2019-01-06T01:07:44.749Z,57.17
2019-01-06T01:13:01.319Z,56.33
2019-01-06T01:18:28.081Z,65.67
2019-01-06T01:23:52.281Z,65.83
2019-01-06T01:29:22.265Z,65.27
2019-01-06T01:34:41.075Z,63.67
2019-01-06T01:40:05.081Z,58.90
2019-01-06T01:45:32.034Z,56.80
2019-01-06T01:50:45.395Z,55.20
2019-01-06T01:56:07.911Z,50.67
2019-01-06T02:01:30.523Z,56.33
2019-01-06T02:07:02.611Z,52.17
2019-01-06T02:12:32.856Z,52.33
2019-01-06T02:17:59.842Z,63.77
2019-01-06T02:23:26.588Z,66.60
2019-01-06T02:28:49.385Z,58.43
2019-01-06T02:34:12.314Z,66.13
2019-01-06T02:39:45.350Z,49.40
2019-01-06T02:45:00.230Z,47.40
2019-01-06T02:50:22.921Z,46.83
2019-01-06T02:55:40.436Z,52.83
2019-01-06T03:01:03.104Z,57.40
2019-01-06T03:06:30.463Z,54.37
2019-01-06T03:11:52.986Z,50.10
2019-01-06T03:17:16.934Z,54.17
2019-01-06T03:22:39.705Z,60.07
2019-01-06T03:28:03.203Z,53.80
2019-01-06T03:33:33.036Z,55.47
2019-01-06T03:38:58.143Z,54.70
2019-01-06T03:44:22.099Z,54.17
2019-01-06T03:49:43.579Z,55.30
2019-01-06T03:55:16.571Z,63.77
2019-01-06T04:00:39.008Z,55.43
2019-01-06T04:06:06.954Z,58.30
2019-01-06T04:11:29.626Z,51.70
2019-01-06T04:17:02.207Z,54.27
2019-01-06T04:22:28.929Z,61.67
2019-01-06T04:28:09.471Z,50.47
2019-01-06T04:33:44.418Z,64.93
2019-01-06T04:39:08.935Z,62.07
2019-01-06T04:44:31.437Z,61.07
2019-01-06T04:49:58.137Z,62.10
2019-01-06T04:55:20.983Z,55.30
2019-01-06T05:00:43.488Z,52.37
2019-01-06T05:06:02.771Z,56.77
2019-01-06T05:11:35.922Z,61.67
2019-01-06T05:17:01.425Z,46.47
2019-01-06T05:22:25.389Z,58.03
2019-01-06T05:27:43.166Z,58.77
2019-01-06T05:33:05.973Z,58.33
2019-01-06T05:38:29.987Z,64.10
2019-01-06T05:43:50.450Z,79.20
2019-01-06T05:49:26.320Z,58.87
2019-01-06T05:55:02.436Z,67.57
2019-01-06T06:00:35.967Z,69.47
2019-01-06T06:06:02.916Z,76.90
2019-01-06T06:11:25.660Z,64.63
2019-01-06T06:17:03.391Z,72.13
2019-01-06T06:22:33.148Z,70.37
2019-01-06T06:27:55.135Z,82.30
2019-01-06T06:33:19.107Z,70.37
2019-01-06T06:38:53.602Z,71.43
2019-01-06T06:44:16.179Z,63.73
2019-01-06T06:49:38.693Z,71.73
2019-01-06T06:55:02.740Z,75.70
2019-01-06T07:00:54.308Z,75.07
2019-01-06T07:06:18.289Z,69.20
2019-01-06T07:11:45.049Z,81.40
2019-01-06T07:17:39.448Z,88.10
2019-01-06T07:23:18.745Z,96.70
2019-01-06T07:28:42.682Z,95.70
2019-01-06T07:34:00.152Z,106.60
2019-01-06T07:39:29.075Z,122.90
2019-01-06T07:44:56.141Z,133.73
2019-01-06T07:50:23.128Z,134.80
2019-01-06T07:55:49.873Z,127.20
2019-01-06T08:01:26.066Z,120.70
2019-01-06T08:07:05.099Z,122.10
2019-01-06T08:12:33.804Z,120.97
2019-01-06T08:17:56.688Z,124.30
2019-01-06T08:23:29.467Z,131.77
2019-01-06T08:28:52.014Z,156.43
2019-01-06T08:34:14.835Z,164.23
2019-01-06T08:39:44.784Z,181.90
2019-01-06T08:45:20.620Z,166.93
2019-01-06T08:50:44.571Z,153.10
2019-01-06T08:56:07.352Z,186.80
2019-01-06T09:01:31.309Z,165.53
2019-01-06T09:06:49.567Z,183.53
2019-01-06T09:12:31.561Z,193.37
2019-01-06T09:18:04.566Z,189.80
2019-01-06T09:23:24.595Z,191.67
2019-01-06T09:28:47.168Z,162.43
2019-01-06T09:34:10.003Z,161.53
2019-01-06T09:40:01.745Z,178.40
2019-01-06T09:45:25.241Z,170.33
2019-01-06T09:50:48.067Z,126.97
2019-01-06T09:56:10.957Z,81.30
2019-01-06T10:01:33.715Z,80.67
2019-01-06T10:06:57.675Z,76.60
2019-01-06T10:12:21.631Z,88.03
2019-01-06T10:17:44.945Z,112.73
2019-01-06T10:23:14.999Z,107.10
2019-01-06T10:28:37.713Z,121.00
2019-01-06T10:33:56.935Z,118.50
2019-01-06T10:39:34.838Z,130.80
2019-01-06T10:45:04.351Z,142.33
2019-01-06T10:50:43.655Z,132.37
2019-01-06T10:56:07.595Z,148.97
2019-01-06T11:01:30.519Z,141.87
2019-01-06T11:06:57.554Z,135.73
2019-01-06T11:12:20.087Z,128.00
2019-01-06T11:17:50.142Z,78.13
2019-01-06T11:23:12.600Z,74.60
2019-01-06T11:28:34.584Z,43.30
2019-01-06T11:34:04.327Z,49.23
2019-01-06T11:39:40.331Z,44.70
2019-01-06T11:45:04.317Z,45.53
2019-01-06T11:50:34.263Z,32.50
2019-01-06T12:06:54.852Z,34.37
2019-01-06T12:12:13.107Z,33.00
2019-01-06T12:17:36.123Z,24.77
2019-01-06T12:23:18.392Z,12.03
2019-01-06T12:28:40.685Z,12.20
2019-01-06T12:34:22.704Z,12.97
2019-01-06T12:39:46.652Z,10.87
2019-01-06T12:45:13.506Z,11.97
2019-01-06T12:50:37.479Z,10.23
2019-01-06T12:56:00.227Z,10.87
2019-01-06T13:01:33.248Z,15.73
2019-01-06T13:06:55.867Z,11.00
2019-01-06T13:12:18.581Z,12.27
2019-01-06T13:17:47.754Z,11.43
2019-01-06T13:23:05.426Z,11.10
2019-01-06T13:28:32.387Z,10.93
2019-01-06T13:34:11.374Z,60.77
2019-01-06T13:39:35.371Z,103.33
2019-01-06T13:45:11.503Z,83.43
2019-01-06T13:50:34.213Z,215.60
2019-01-06T13:56:02.064Z,176.83
2019-01-06T14:01:26.222Z,173.63
2019-01-06T14:06:50.346Z,170.83
2019-01-06T14:12:08.845Z,144.87
2019-01-06T14:17:38.626Z,181.83
2019-01-06T14:23:05.627Z,150.87
2019-01-06T14:28:36.331Z,107.17
2019-01-06T14:34:06.908Z,60.00
2019-01-06T14:39:47.394Z,63.80
2019-01-06T14:45:13.227Z,66.47
2019-01-06T14:50:37.335Z,74.83
2019-01-06T14:56:07.615Z,55.53
2019-01-06T15:01:31.759Z,36.47
2019-01-06T15:06:56.198Z,23.53
2019-01-06T15:12:16.995Z,20.37
2019-01-06T15:17:54.581Z,22.07
2019-01-06T15:23:28.336Z,29.50
2019-01-06T15:28:50.901Z,27.20
2019-01-06T15:34:20.787Z,25.63
2019-01-06T15:39:46.815Z,21.43
2019-01-06T15:45:20.090Z,23.33
2019-01-06T15:50:51.908Z,24.33
2019-01-06T15:56:18.707Z,25.23
2019-01-06T16:01:40.568Z,23.40
2019-01-06T16:07:05.872Z,21.13
2019-01-06T16:12:40.232Z,17.80
2019-01-06T16:18:04.648Z,21.23
2019-01-06T16:23:28.471Z,20.10
2019-01-06T16:28:51.400Z,20.20
2019-01-06T16:34:22.954Z,23.93
2019-01-06T16:39:53.210Z,22.07
2019-01-06T16:45:32.221Z,21.73
2019-01-06T16:51:08.225Z,20.87
2019-01-06T16:56:30.748Z,18.70
2019-01-06T17:01:53.275Z,21.13
2019-01-06T17:07:17.229Z,25.27
2019-01-06T17:12:39.750Z,31.90
2019-01-06T17:18:16.139Z,42.70
2019-01-06T17:23:46.168Z,46.20
2019-01-06T17:29:26.075Z,51.40
2019-01-06T17:34:50.043Z,64.87
2019-01-06T17:40:13.034Z,62.37
2019-01-06T17:45:35.860Z,71.33
2019-01-06T17:50:58.322Z,124.47
2019-01-06T17:56:25.569Z,98.23
2019-01-06T18:01:42.993Z,93.47
2019-01-06T18:06:56.396Z,110.57
2019-01-06T18:12:15.540Z,121.30
2019-01-06T18:17:42.275Z,86.57
2019-01-06T18:23:09.025Z,64.13
2019-01-06T18:28:38.777Z,59.97
2019-01-06T18:34:09.588Z,60.03
2019-01-06T18:39:34.757Z,55.87
2019-01-06T18:44:57.949Z,61.43
2019-01-06T18:50:27.976Z,66.17
2019-01-06T18:55:54.734Z,62.70
2019-01-06T19:01:17.399Z,51.60
2019-01-06T19:06:40.536Z,62.07
2019-01-06T19:12:04.474Z,83.17
2019-01-06T19:17:27.014Z,86.73
2019-01-06T19:22:54.054Z,92.40
2019-01-06T19:28:36.434Z,101.77
2019-01-06T19:34:00.338Z,86.00
2019-01-06T19:39:41.686Z,89.57
2019-01-06T19:45:11.751Z,89.83
2019-01-06T19:50:44.718Z,76.50
2019-01-06T19:56:07.421Z,81.03
2019-01-06T20:01:30.027Z,76.03
2019-01-06T20:06:58.130Z,89.07
2019-01-06T20:12:27.905Z,103.67
2019-01-06T20:17:50.672Z,98.70
2019-01-06T20:23:33.209Z,93.70
2019-01-06T20:28:59.886Z,66.93
2019-01-06T20:34:22.394Z,77.40
2019-01-06T20:40:04.531Z,90.00
2019-01-06T20:45:34.462Z,89.67
2019-01-06T20:50:57.265Z,102.77
2019-01-06T20:56:39.655Z,82.17
2019-01-06T21:02:02.456Z,81.67
2019-01-06T21:07:24.374Z,79.83
2019-01-06T21:13:06.829Z,76.47
2019-01-06T21:18:36.334Z,69.70
2019-01-06T21:23:59.096Z,70.23
2019-01-06T21:29:24.724Z,70.03
2019-01-06T21:35:01.110Z,66.43
2019-01-06T21:40:28.813Z,73.23
2019-01-06T21:46:10.927Z,67.27
2019-01-06T21:51:47.250Z,66.87
2019-01-06T21:57:20.518Z,61.50
2019-01-06T22:02:43.289Z,59.03
2019-01-06T22:08:01.037Z,51.90
2019-01-06T22:13:16.834Z,52.40
2019-01-06T22:18:39.632Z,51.90
2019-01-06T22:24:10.217Z,49.33
2019-01-06T22:29:34.177Z,45.30
2019-01-06T22:34:57.070Z,43.37
2019-01-06T22:40:15.513Z,43.40
2019-01-06T22:45:38.303Z,36.87
2019-01-06T22:51:05.164Z,31.63
2019-01-06T22:56:27.740Z,27.07
2019-01-06T23:01:57.557Z,28.63
2019-01-06T23:07:30.695Z,28.67
2019-01-06T23:12:53.265Z,44.03
2019-01-06T23:18:15.971Z,24.67
2019-01-06T23:23:35.180Z,25.40
2019-01-06T23:28:59.149Z,55.23
2019-01-06T23:34:29.081Z,19.13
2019-01-06T23:39:51.902Z,19.03
2019-01-06T23:45:13.000Z,23.03
2019-01-06T23:50:32.486Z,22.37
2019-01-06T23:56:08.507Z,22.87
